Сообщение об ошибке

  • Warning: ini_set(): Headers already sent. You cannot change the session module's ini settings at this time in drupal_environment_initialize() (line 699 of /home/a/auditpro/2.auditpro.beget.tech/public_html/st/includes/bootstrap.inc).
  • Warning: ini_set(): Headers already sent. You cannot change the session module's ini settings at this time in drupal_environment_initialize() (line 700 of /home/a/auditpro/2.auditpro.beget.tech/public_html/st/includes/bootstrap.inc).
  • Warning: ini_set(): Headers already sent. You cannot change the session module's ini settings at this time in drupal_environment_initialize() (line 701 of /home/a/auditpro/2.auditpro.beget.tech/public_html/st/includes/bootstrap.inc).
  • Warning: ini_set(): Headers already sent. You cannot change the session module's ini settings at this time in drupal_environment_initialize() (line 704 of /home/a/auditpro/2.auditpro.beget.tech/public_html/st/includes/bootstrap.inc).
  • Warning: ini_set(): Headers already sent. You cannot change the session module's ini settings at this time in drupal_environment_initialize() (line 706 of /home/a/auditpro/2.auditpro.beget.tech/public_html/st/includes/bootstrap.inc).
  • Warning: ini_set(): Headers already sent. You cannot change the session module's ini settings at this time in include_once() (line 290 of /home/a/auditpro/2.auditpro.beget.tech/public_html/st/sites/default/settings.php).
  • Warning: ini_set(): Headers already sent. You cannot change the session module's ini settings at this time in include_once() (line 291 of /home/a/auditpro/2.auditpro.beget.tech/public_html/st/sites/default/settings.php).
  • Warning: ini_set(): Headers already sent. You cannot change the session module's ini settings at this time in include_once() (line 299 of /home/a/auditpro/2.auditpro.beget.tech/public_html/st/sites/default/settings.php).
  • Warning: ini_set(): Headers already sent. You cannot change the session module's ini settings at this time in include_once() (line 306 of /home/a/auditpro/2.auditpro.beget.tech/public_html/st/sites/default/settings.php).
  • Warning: ini_set(): Headers already sent. You cannot change the session module's ini settings at this time in drupal_settings_initialize() (line 826 of /home/a/auditpro/2.auditpro.beget.tech/public_html/st/includes/bootstrap.inc).
  • Warning: ini_set(): Headers already sent. You cannot change the session module's ini settings at this time in drupal_settings_initialize() (line 835 of /home/a/auditpro/2.auditpro.beget.tech/public_html/st/includes/bootstrap.inc).
  • Warning: session_name(): Cannot change session name when headers already sent in drupal_settings_initialize() (line 838 of /home/a/auditpro/2.auditpro.beget.tech/public_html/st/includes/bootstrap.inc).

Алыкель

СКИДКИ НА СМАРТФОНЫ!

Карта отелей и гостиниц, располагающихся рядом с аэропортом Алыкель :

Алыкель
Норильск
Красноярский край 69° 18' 39.6612" N, 87° 19' 55.0812" E
Код аэродрома ИКАО
UOOO
Код аэродрома RU
УООО
Координаты
N69.31102° E087.33197°
Превышение над уровнем моря
181
Основная полоса
01/19
Курс магнитный
014/194
Длина основной ВПП
3435
Ширина основной ВПП
45
Покрытие основной ВПП
Твёрдое
Освещение ВПП
Постоянное
Тип: 
Аэродром
Принадлежность: 
ГА
Статус: 
Действующий
Сайт: 
http://airport-norilsk.ru/
E-mail аэродрома: 
airport@airport-norilsk.ru
Страна: 
Россия
Регион: 
Красноярский край
Город: 
Норильск
Дополнительная информация: 
Эксплуатант: ООО «Аэропорт Норильск». Совместного базирования. Приравнен к условиям "Международного"(пересечение воздушных магистралей: транссибирской и трансатлантической). Грузонапряженность ВПП до 280 тонн. PCN 47/R/A/X/T. Военный индекс: XOOO / ЬООО. Расположен на Севере Красноярского края, на юге Таймырского полуострова в 52 км от промышленного и индустриального центра г. Норильск с его градообразующим стратегически важным предприятием ПАО «ГМК «Норильский Никель».
Схемы аэропортов: 
Погода: 

Авиационная погода в аэропорту Алыкель

Регион: 
Погода METAR: 
UOOO 302000Z 18002MPS 8000 FEW008 M19/M21 Q1014 R19/490335 NOSIG RMK QFE744/0993
Время наблюдения
2023-01-30T20:00:00Z
Температура C
-19.0
Точка росы
-21.0
Направление ветра
180
Скорость ветра (узлы)
4
Метео видимость
4.97
Облачность
FEW
Нижняя граница облачности (футы)
800
Явления погоды
Условия полета
MVFR
Аэропорт подробнее: 
FEW – незначительная облачность;

Скидки на навигаторы!

Найти трансфер

С помощью этой формы Вы можете найти трансфер из аэропорта Алыкель в город, аэропорт или вокзал:

Погода в аэропортах:

Авиационная погода в Толмачево

Регион: 
Погода METAR: 
UNNT 301930Z 24003MPS 9999 -SN OVC008 M10/M12 Q1029 R25/490145 R34/////// NOSIG RMK QFE762/1016
Время наблюдения
2023-01-30T19:30:00Z
Температура C
-10.0
Точка росы
-12.0
Направление ветра
240
Скорость ветра (узлы)
6
Метео видимость
6.21
Облачность
OVC
Нижняя граница облачности (футы)
800
Явления погоды
-SN
Условия полета
IFR
Аэропорт подробнее: 
OVC – сплошная облачность;
-SN – слабый снег;

Авиационная погода в Богашево

Регион: 
Погода METAR: 
UNTT 301930Z 23005MPS 9999 -SN BKN016 M10/M12 Q1027 R21/////// NOSIG RMK QFE755
Время наблюдения
2023-01-30T19:30:00Z
Температура C
-10.0
Точка росы
-12.0
Направление ветра
230
Скорость ветра (узлы)
10
Метео видимость
6.21
Облачность
BKN
Нижняя граница облачности (футы)
1600
Явления погоды
-SN
Условия полета
MVFR
Аэропорт подробнее: 
BKN – значительная (рассеянная, разорванная) облачность;
-SN – слабый снег;

Авиационная погода в аэропорту Центральный

Регион: 
Погода METAR: 
UNOO 301930Z 16002MPS 8000 -SN BKN007 BKN033 M18/M20 Q1024 R25/820550 NOSIG RMK QFE760
Время наблюдения
2023-01-30T19:30:00Z
Температура C
-18.0
Точка росы
-20.0
Направление ветра
160
Скорость ветра (узлы)
4
Метео видимость
4.97
Облачность
BKN
BKN
Нижняя граница облачности (футы)
700
3300
Явления погоды
-SN
Условия полета
IFR
Аэропорт подробнее: 
BKN – значительная (рассеянная, разорванная) облачность;
-SN – слабый снег;

Авиационная погода в Махачкале

Регион: 
Погода METAR: 
URML 301930Z 25002MPS 4200 BR NSC M00/M02 Q1015 R14/01//70 TEMPO 0600 FG BKN001 RMK QFE761/1015
Время наблюдения
2023-01-30T19:30:00Z
Температура C
0.0
Точка росы
-2.0
Направление ветра
250
Скорость ветра (узлы)
4
Метео видимость
2.61
Облачность
CLR
Нижняя граница облачности (футы)
Явления погоды
BR
Условия полета
IFR
Аэропорт подробнее: 
CLR — нет облаков ниже 3000 м
BR – дымка (видимость от 1 до 9 км);